sensor_id;sensor_type;location;lat;lon;timestamp;temperature;humidity
19588;DHT22;9940;47.252;8.696;2023-04-28T00:00:51;16.70;81.90
19588;DHT22;9940;47.252;8.696;2023-04-28T00:03:19;16.80;81.80
19588;DHT22;9940;47.252;8.696;2023-04-28T00:05:44;16.70;81.60
19588;DHT22;9940;47.252;8.696;2023-04-28T00:08:13;16.60;82.10
19588;DHT22;9940;47.252;8.696;2023-04-28T00:10:39;16.50;82.40
19588;DHT22;9940;47.252;8.696;2023-04-28T00:13:05;16.50;82.60
19588;DHT22;9940;47.252;8.696;2023-04-28T00:15:30;16.50;83.10
19588;DHT22;9940;47.252;8.696;2023-04-28T00:17:56;16.50;83.80
19588;DHT22;9940;47.252;8.696;2023-04-28T00:20:21;16.50;84.20
19588;DHT22;9940;47.252;8.696;2023-04-28T00:22:47;16.50;84.30
19588;DHT22;9940;47.252;8.696;2023-04-28T00:25:14;16.50;84.20
19588;DHT22;9940;47.252;8.696;2023-04-28T00:27:42;16.50;84.20
19588;DHT22;9940;47.252;8.696;2023-04-28T00:30:13;16.50;84.40
19588;DHT22;9940;47.252;8.696;2023-04-28T00:32:40;16.50;84.70
19588;DHT22;9940;47.252;8.696;2023-04-28T00:35:08;16.50;85.30
19588;DHT22;9940;47.252;8.696;2023-04-28T00:37:37;16.40;86.40
19588;DHT22;9940;47.252;8.696;2023-04-28T00:40:03;16.40;87.60
19588;DHT22;9940;47.252;8.696;2023-04-28T00:42:29;16.40;88.80
19588;DHT22;9940;47.252;8.696;2023-04-28T00:44:55;16.40;89.90
19588;DHT22;9940;47.252;8.696;2023-04-28T00:47:23;16.40;90.20
19588;DHT22;9940;47.252;8.696;2023-04-28T00:49:49;16.30;90.40
19588;DHT22;9940;47.252;8.696;2023-04-28T00:52:15;16.30;90.50
19588;DHT22;9940;47.252;8.696;2023-04-28T00:54:45;16.30;90.50
19588;DHT22;9940;47.252;8.696;2023-04-28T00:57:14;16.40;90.50
19588;DHT22;9940;47.252;8.696;2023-04-28T00:59:40;16.30;90.70
19588;DHT22;9940;47.252;8.696;2023-04-28T01:02:06;16.30;90.90
19588;DHT22;9940;47.252;8.696;2023-04-28T01:04:35;16.20;91.00
19588;DHT22;9940;47.252;8.696;2023-04-28T01:07:00;16.20;91.20
19588;DHT22;9940;47.252;8.696;2023-04-28T01:09:26;16.20;91.20
19588;DHT22;9940;47.252;8.696;2023-04-28T01:11:54;16.20;91.30
19588;DHT22;9940;47.252;8.696;2023-04-28T01:14:24;16.10;91.20
19588;DHT22;9940;47.252;8.696;2023-04-28T01:16:53;16.10;91.30
19588;DHT22;9940;47.252;8.696;2023-04-28T01:19:22;16.10;91.40
19588;DHT22;9940;47.252;8.696;2023-04-28T01:21:50;16.10;91.60
19588;DHT22;9940;47.252;8.696;2023-04-28T01:24:16;16.10;91.60
19588;DHT22;9940;47.252;8.696;2023-04-28T01:26:44;16.10;91.70
19588;DHT22;9940;47.252;8.696;2023-04-28T01:29:10;16.10;91.70
19588;DHT22;9940;47.252;8.696;2023-04-28T01:31:36;16.00;91.80
19588;DHT22;9940;47.252;8.696;2023-04-28T01:34:02;16.10;91.90
19588;DHT22;9940;47.252;8.696;2023-04-28T01:36:28;16.00;92.10
19588;DHT22;9940;47.252;8.696;2023-04-28T01:38:56;16.00;92.30
19588;DHT22;9940;47.252;8.696;2023-04-28T01:41:21;16.00;92.50
19588;DHT22;9940;47.252;8.696;2023-04-28T01:43:47;16.00;92.90
19588;DHT22;9940;47.252;8.696;2023-04-28T01:46:17;16.00;93.50
19588;DHT22;9940;47.252;8.696;2023-04-28T01:48:43;16.00;94.10
19588;DHT22;9940;47.252;8.696;2023-04-28T01:51:08;16.00;94.60
19588;DHT22;9940;47.252;8.696;2023-04-28T01:53:34;16.00;95.10
19588;DHT22;9940;47.252;8.696;2023-04-28T01:56:02;16.00;95.50
19588;DHT22;9940;47.252;8.696;2023-04-28T01:58:30;16.00;95.80
19588;DHT22;9940;47.252;8.696;2023-04-28T02:00:55;16.00;96.00
19588;DHT22;9940;47.252;8.696;2023-04-28T02:03:21;16.00;96.00
19588;DHT22;9940;47.252;8.696;2023-04-28T02:05:47;16.00;96.00
19588;DHT22;9940;47.252;8.696;2023-04-28T02:08:14;16.00;95.80
19588;DHT22;9940;47.252;8.696;2023-04-28T02:10:42;16.00;95.50
19588;DHT22;9940;47.252;8.696;2023-04-28T02:13:09;15.90;95.20
19588;DHT22;9940;47.252;8.696;2023-04-28T02:15:39;15.90;95.00
19588;DHT22;9940;47.252;8.696;2023-04-28T02:18:05;15.90;94.90
19588;DHT22;9940;47.252;8.696;2023-04-28T02:20:33;15.90;95.10
19588;DHT22;9940;47.252;8.696;2023-04-28T02:22:59;15.90;95.50
19588;DHT22;9940;47.252;8.696;2023-04-28T02:25:24;15.90;95.70
19588;DHT22;9940;47.252;8.696;2023-04-28T02:27:50;15.90;96.00
19588;DHT22;9940;47.252;8.696;2023-04-28T02:30:15;15.80;96.30
19588;DHT22;9940;47.252;8.696;2023-04-28T02:32:41;15.80;96.80
19588;DHT22;9940;47.252;8.696;2023-04-28T02:35:09;15.80;97.40
19588;DHT22;9940;47.252;8.696;2023-04-28T02:37:37;15.80;97.90
19588;DHT22;9940;47.252;8.696;2023-04-28T02:40:03;15.70;98.30
19588;DHT22;9940;47.252;8.696;2023-04-28T02:42:29;15.80;98.90
19588;DHT22;9940;47.252;8.696;2023-04-28T02:44:56;15.80;99.30
19588;DHT22;9940;47.252;8.696;2023-04-28T02:47:22;15.80;99.70
19588;DHT22;9940;47.252;8.696;2023-04-28T02:49:48;15.80;99.90
19588;DHT22;9940;47.252;8.696;2023-04-28T02:52:16;15.80;99.90
19588;DHT22;9940;47.252;8.696;2023-04-28T02:54:41;15.80;99.90
19588;DHT22;9940;47.252;8.696;2023-04-28T02:57:07;15.70;99.90
19588;DHT22;9940;47.252;8.696;2023-04-28T02:59:35;15.70;99.90
19588;DHT22;9940;47.252;8.696;2023-04-28T03:02:00;15.70;99.90
19588;DHT22;9940;47.252;8.696;2023-04-28T03:04:26;15.70;99.90
19588;DHT22;9940;47.252;8.696;2023-04-28T03:06:56;15.70;99.90
19588;DHT22;9940;47.252;8.696;2023-04-28T03:09:22;15.70;99.90
19588;DHT22;9940;47.252;8.696;2023-04-28T03:11:50;15.60;99.90
19588;DHT22;9940;47.252;8.696;2023-04-28T03:14:15;15.60;99.90
19588;DHT22;9940;47.252;8.696;2023-04-28T03:16:43;15.50;99.90
19588;DHT22;9940;47.252;8.696;2023-04-28T03:19:09;15.50;99.90
19588;DHT22;9940;47.252;8.696;2023-04-28T03:21:34;15.50;99.90
19588;DHT22;9940;47.252;8.696;2023-04-28T03:24:00;15.50;99.90
19588;DHT22;9940;47.252;8.696;2023-04-28T03:26:28;15.50;99.90
19588;DHT22;9940;47.252;8.696;2023-04-28T03:28:54;15.60;99.90
19588;DHT22;9940;47.252;8.696;2023-04-28T03:31:21;15.60;99.90
19588;DHT22;9940;47.252;8.696;2023-04-28T03:33:49;15.60;99.90
19588;DHT22;9940;47.252;8.696;2023-04-28T03:36:14;15.60;99.90
19588;DHT22;9940;47.252;8.696;2023-04-28T03:38:43;15.60;99.90
19588;DHT22;9940;47.252;8.696;2023-04-28T03:41:08;15.60;99.90
19588;DHT22;9940;47.252;8.696;2023-04-28T03:43:34;15.60;99.90
19588;DHT22;9940;47.252;8.696;2023-04-28T03:46:02;15.60;99.90
19588;DHT22;9940;47.252;8.696;2023-04-28T03:48:28;15.50;99.90
19588;DHT22;9940;47.252;8.696;2023-04-28T03:50:54;15.50;99.90
19588;DHT22;9940;47.252;8.696;2023-04-28T03:53:20;15.50;99.90
19588;DHT22;9940;47.252;8.696;2023-04-28T03:55:46;15.40;99.90
19588;DHT22;9940;47.252;8.696;2023-04-28T03:58:11;15.40;99.90
19588;DHT22;9940;47.252;8.696;2023-04-28T04:00:39;15.30;99.90
19588;DHT22;9940;47.252;8.696;2023-04-28T04:03:05;15.30;99.90
19588;DHT22;9940;47.252;8.696;2023-04-28T04:05:30;15.20;99.90
19588;DHT22;9940;47.252;8.696;2023-04-28T04:07:56;15.20;99.90
19588;DHT22;9940;47.252;8.696;2023-04-28T04:10:22;15.20;99.90
19588;DHT22;9940;47.252;8.696;2023-04-28T04:12:50;15.20;99.90
19588;DHT22;9940;47.252;8.696;2023-04-28T04:15:16;15.20;99.90
19588;DHT22;9940;47.252;8.696;2023-04-28T04:17:43;15.20;99.90
19588;DHT22;9940;47.252;8.696;2023-04-28T04:20:09;15.20;99.90
19588;DHT22;9940;47.252;8.696;2023-04-28T04:22:37;15.30;99.90
19588;DHT22;9940;47.252;8.696;2023-04-28T04:25:03;15.20;99.90
19588;DHT22;9940;47.252;8.696;2023-04-28T04:27:29;15.20;99.90
19588;DHT22;9940;47.252;8.696;2023-04-28T04:29:54;15.20;99.90
19588;DHT22;9940;47.252;8.696;2023-04-28T04:32:20;15.20;99.90
19588;DHT22;9940;47.252;8.696;2023-04-28T04:34:48;15.10;99.90
19588;DHT22;9940;47.252;8.696;2023-04-28T04:37:14;15.10;99.90
19588;DHT22;9940;47.252;8.696;2023-04-28T04:39:39;15.10;99.90
19588;DHT22;9940;47.252;8.696;2023-04-28T04:42:07;15.00;99.90
19588;DHT22;9940;47.252;8.696;2023-04-28T04:44:33;15.00;99.90
19588;DHT22;9940;47.252;8.696;2023-04-28T04:46:58;15.00;99.90
19588;DHT22;9940;47.252;8.696;2023-04-28T04:49:26;15.00;99.90
19588;DHT22;9940;47.252;8.696;2023-04-28T04:51:52;15.00;99.90
19588;DHT22;9940;47.252;8.696;2023-04-28T04:54:18;15.00;99.90
19588;DHT22;9940;47.252;8.696;2023-04-28T04:56:43;15.00;99.90
19588;DHT22;9940;47.252;8.696;2023-04-28T04:59:11;14.90;99.90
19588;DHT22;9940;47.252;8.696;2023-04-28T05:01:37;14.90;99.90
19588;DHT22;9940;47.252;8.696;2023-04-28T05:04:03;14.90;99.90
19588;DHT22;9940;47.252;8.696;2023-04-28T05:06:31;14.80;99.90
19588;DHT22;9940;47.252;8.696;2023-04-28T05:08:56;14.80;99.90
19588;DHT22;9940;47.252;8.696;2023-04-28T05:11:23;14.80;99.90
19588;DHT22;9940;47.252;8.696;2023-04-28T05:13:49;14.80;99.90
19588;DHT22;9940;47.252;8.696;2023-04-28T05:16:14;14.80;99.90
19588;DHT22;9940;47.252;8.696;2023-04-28T05:18:42;14.80;99.90
19588;DHT22;9940;47.252;8.696;2023-04-28T05:21:08;14.80;99.90
19588;DHT22;9940;47.252;8.696;2023-04-28T05:23:36;14.80;99.90
19588;DHT22;9940;47.252;8.696;2023-04-28T05:26:01;14.80;99.90
19588;DHT22;9940;47.252;8.696;2023-04-28T05:28:30;14.80;99.90
19588;DHT22;9940;47.252;8.696;2023-04-28T05:30:58;14.80;99.90
19588;DHT22;9940;47.252;8.696;2023-04-28T05:33:24;14.80;99.90
19588;DHT22;9940;47.252;8.696;2023-04-28T05:35:49;14.80;99.90
19588;DHT22;9940;47.252;8.696;2023-04-28T05:38:17;14.80;99.90
19588;DHT22;9940;47.252;8.696;2023-04-28T05:40:45;14.80;99.90
19588;DHT22;9940;47.252;8.696;2023-04-28T05:43:13;14.80;99.90
19588;DHT22;9940;47.252;8.696;2023-04-28T05:45:41;14.90;99.90
19588;DHT22;9940;47.252;8.696;2023-04-28T05:48:07;14.90;99.90
19588;DHT22;9940;47.252;8.696;2023-04-28T05:50:33;14.80;99.90
19588;DHT22;9940;47.252;8.696;2023-04-28T05:53:03;14.90;99.90
19588;DHT22;9940;47.252;8.696;2023-04-28T05:55:31;14.90;99.90
19588;DHT22;9940;47.252;8.696;2023-04-28T05:57:58;14.90;99.90
19588;DHT22;9940;47.252;8.696;2023-04-28T06:00:28;14.80;99.90
19588;DHT22;9940;47.252;8.696;2023-04-28T06:02:54;14.80;99.90
19588;DHT22;9940;47.252;8.696;2023-04-28T06:05:21;14.80;99.90
19588;DHT22;9940;47.252;8.696;2023-04-28T06:07:51;14.70;99.90
19588;DHT22;9940;47.252;8.696;2023-04-28T06:10:18;14.70;99.90
19588;DHT22;9940;47.252;8.696;2023-04-28T06:12:44;14.70;99.90
19588;DHT22;9940;47.252;8.696;2023-04-28T06:15:10;14.70;99.90
19588;DHT22;9940;47.252;8.696;2023-04-28T06:17:37;14.70;99.90
19588;DHT22;9940;47.252;8.696;2023-04-28T06:20:03;14.70;99.90
19588;DHT22;9940;47.252;8.696;2023-04-28T06:22:29;14.60;99.90
19588;DHT22;9940;47.252;8.696;2023-04-28T06:24:55;14.70;99.90
19588;DHT22;9940;47.252;8.696;2023-04-28T06:27:20;14.70;99.90
19588;DHT22;9940;47.252;8.696;2023-04-28T06:29:48;14.70;99.90
19588;DHT22;9940;47.252;8.696;2023-04-28T06:32:14;14.70;99.90
19588;DHT22;9940;47.252;8.696;2023-04-28T06:34:42;14.70;99.90
19588;DHT22;9940;47.252;8.696;2023-04-28T06:37:07;14.70;99.90
19588;DHT22;9940;47.252;8.696;2023-04-28T06:39:38;14.70;99.90
19588;DHT22;9940;47.252;8.696;2023-04-28T06:42:08;14.70;99.90
19588;DHT22;9940;47.252;8.696;2023-04-28T06:44:34;14.70;99.90
19588;DHT22;9940;47.252;8.696;2023-04-28T06:47:02;14.70;99.90
19588;DHT22;9940;47.252;8.696;2023-04-28T06:49:27;14.70;99.90
19588;DHT22;9940;47.252;8.696;2023-04-28T06:51:55;14.70;99.90
19588;DHT22;9940;47.252;8.696;2023-04-28T06:54:21;14.70;99.90
19588;DHT22;9940;47.252;8.696;2023-04-28T06:56:49;14.70;99.90
19588;DHT22;9940;47.252;8.696;2023-04-28T06:59:14;14.70;99.90
19588;DHT22;9940;47.252;8.696;2023-04-28T07:01:42;14.70;99.90
19588;DHT22;9940;47.252;8.696;2023-04-28T07:04:08;14.70;99.90
19588;DHT22;9940;47.252;8.696;2023-04-28T07:06:36;14.60;99.90
19588;DHT22;9940;47.252;8.696;2023-04-28T07:09:01;14.60;99.90
19588;DHT22;9940;47.252;8.696;2023-04-28T07:11:27;14.60;99.90
19588;DHT22;9940;47.252;8.696;2023-04-28T07:13:57;14.60;99.90
19588;DHT22;9940;47.252;8.696;2023-04-28T07:16:24;14.60;99.90
19588;DHT22;9940;47.252;8.696;2023-04-28T07:18:49;14.70;99.90
19588;DHT22;9940;47.252;8.696;2023-04-28T07:21:17;14.70;99.90
19588;DHT22;9940;47.252;8.696;2023-04-28T07:23:46;14.70;99.90
19588;DHT22;9940;47.252;8.696;2023-04-28T07:26:13;14.80;99.90
19588;DHT22;9940;47.252;8.696;2023-04-28T07:28:41;14.70;99.90
19588;DHT22;9940;47.252;8.696;2023-04-28T07:31:07;14.70;99.90
19588;DHT22;9940;47.252;8.696;2023-04-28T07:33:32;14.70;99.90
19588;DHT22;9940;47.252;8.696;2023-04-28T07:35:58;14.70;99.90
19588;DHT22;9940;47.252;8.696;2023-04-28T07:38:26;14.70;99.90
19588;DHT22;9940;47.252;8.696;2023-04-28T07:40:51;14.70;99.90
19588;DHT22;9940;47.252;8.696;2023-04-28T07:43:17;14.70;99.90
19588;DHT22;9940;47.252;8.696;2023-04-28T07:45:43;14.70;99.90
19588;DHT22;9940;47.252;8.696;2023-04-28T07:48:14;14.70;99.90
19588;DHT22;9940;47.252;8.696;2023-04-28T07:50:39;14.70;99.90
19588;DHT22;9940;47.252;8.696;2023-04-28T07:53:07;14.60;99.90
19588;DHT22;9940;47.252;8.696;2023-04-28T07:55:35;14.70;99.90
19588;DHT22;9940;47.252;8.696;2023-04-28T07:58:01;14.70;99.90
19588;DHT22;9940;47.252;8.696;2023-04-28T08:00:29;14.70;99.90
19588;DHT22;9940;47.252;8.696;2023-04-28T08:02:57;14.70;99.90
19588;DHT22;9940;47.252;8.696;2023-04-28T08:05:25;14.70;99.90
19588;DHT22;9940;47.252;8.696;2023-04-28T08:07:51;14.70;99.90
19588;DHT22;9940;47.252;8.696;2023-04-28T08:10:16;14.70;99.90
19588;DHT22;9940;47.252;8.696;2023-04-28T08:12:42;14.80;99.90
19588;DHT22;9940;47.252;8.696;2023-04-28T08:15:10;14.70;99.90
19588;DHT22;9940;47.252;8.696;2023-04-28T08:17:36;14.70;99.90
19588;DHT22;9940;47.252;8.696;2023-04-28T08:20:02;14.80;99.90
19588;DHT22;9940;47.252;8.696;2023-04-28T08:22:31;14.80;99.90
19588;DHT22;9940;47.252;8.696;2023-04-28T08:25:01;14.80;99.90
19588;DHT22;9940;47.252;8.696;2023-04-28T08:27:30;14.70;99.90
19588;DHT22;9940;47.252;8.696;2023-04-28T08:29:55;14.80;99.90
19588;DHT22;9940;47.252;8.696;2023-04-28T08:32:21;14.70;99.90
19588;DHT22;9940;47.252;8.696;2023-04-28T08:34:47;14.70;99.90
19588;DHT22;9940;47.252;8.696;2023-04-28T08:37:12;14.70;99.90
19588;DHT22;9940;47.252;8.696;2023-04-28T08:42:07;14.50;99.90
19588;DHT22;9940;47.252;8.696;2023-04-28T08:44:37;14.60;99.90
19588;DHT22;9940;47.252;8.696;2023-04-28T08:47:11;14.60;99.90
19588;DHT22;9940;47.252;8.696;2023-04-28T08:49:40;14.60;99.90
19588;DHT22;9940;47.252;8.696;2023-04-28T08:52:18;14.60;99.90
19588;DHT22;9940;47.252;8.696;2023-04-28T08:54:48;14.60;99.90
19588;DHT22;9940;47.252;8.696;2023-04-28T08:57:18;14.60;99.90
19588;DHT22;9940;47.252;8.696;2023-04-28T08:59:45;14.60;99.90
19588;DHT22;9940;47.252;8.696;2023-04-28T09:02:16;14.60;99.90
19588;DHT22;9940;47.252;8.696;2023-04-28T09:04:41;14.50;99.90
19588;DHT22;9940;47.252;8.696;2023-04-28T09:07:11;14.50;99.90
19588;DHT22;9940;47.252;8.696;2023-04-28T09:09:36;14.50;99.90
19588;DHT22;9940;47.252;8.696;2023-04-28T09:12:03;14.50;99.90
19588;DHT22;9940;47.252;8.696;2023-04-28T09:14:37;14.50;99.90
19588;DHT22;9940;47.252;8.696;2023-04-28T09:17:12;14.60;99.90
19588;DHT22;9940;47.252;8.696;2023-04-28T09:19:39;14.60;99.90
19588;DHT22;9940;47.252;8.696;2023-04-28T09:22:07;14.70;99.90
19588;DHT22;9940;47.252;8.696;2023-04-28T09:24:40;14.70;99.90
19588;DHT22;9940;47.252;8.696;2023-04-28T09:27:09;14.80;99.90
19588;DHT22;9940;47.252;8.696;2023-04-28T09:29:51;14.80;99.90
19588;DHT22;9940;47.252;8.696;2023-04-28T09:32:18;14.90;99.90
19588;DHT22;9940;47.252;8.696;2023-04-28T09:34:48;14.90;99.90
19588;DHT22;9940;47.252;8.696;2023-04-28T09:39:45;15.00;99.90
19588;DHT22;9940;47.252;8.696;2023-04-28T09:42:42;15.00;99.90
19588;DHT22;9940;47.252;8.696;2023-04-28T09:45:10;15.10;99.90
19588;DHT22;9940;47.252;8.696;2023-04-28T09:47:41;15.30;99.90
19588;DHT22;9940;47.252;8.696;2023-04-28T09:50:11;15.40;99.90
19588;DHT22;9940;47.252;8.696;2023-04-28T09:52:45;15.40;99.90
19588;DHT22;9940;47.252;8.696;2023-04-28T09:55:21;15.40;99.90
19588;DHT22;9940;47.252;8.696;2023-04-28T09:57:53;15.40;99.90
19588;DHT22;9940;47.252;8.696;2023-04-28T10:00:21;15.50;99.90
19588;DHT22;9940;47.252;8.696;2023-04-28T10:02:48;15.60;99.90
19588;DHT22;9940;47.252;8.696;2023-04-28T10:05:15;15.60;99.90
19588;DHT22;9940;47.252;8.696;2023-04-28T10:07:42;15.70;99.90
19588;DHT22;9940;47.252;8.696;2023-04-28T10:10:07;15.70;99.90
19588;DHT22;9940;47.252;8.696;2023-04-28T10:12:34;15.60;99.90
19588;DHT22;9940;47.252;8.696;2023-04-28T10:15:02;15.50;99.90
19588;DHT22;9940;47.252;8.696;2023-04-28T10:17:31;15.40;99.90
19588;DHT22;9940;47.252;8.696;2023-04-28T10:19:59;15.40;99.90
19588;DHT22;9940;47.252;8.696;2023-04-28T10:27:50;15.30;99.90
19588;DHT22;9940;47.252;8.696;2023-04-28T10:30:24;15.20;99.90
19588;DHT22;9940;47.252;8.696;2023-04-28T10:35:45;15.30;99.90
19588;DHT22;9940;47.252;8.696;2023-04-28T10:38:17;15.20;99.90
19588;DHT22;9940;47.252;8.696;2023-04-28T10:40:50;15.20;99.90
19588;DHT22;9940;47.252;8.696;2023-04-28T10:56:26;15.20;99.90
19588;DHT22;9940;47.252;8.696;2023-04-28T10:58:55;15.20;99.90
19588;DHT22;9940;47.252;8.696;2023-04-28T11:03:49;15.20;99.90
19588;DHT22;9940;47.252;8.696;2023-04-28T11:06:28;15.20;99.90
19588;DHT22;9940;47.252;8.696;2023-04-28T11:14:32;15.20;99.90
19588;DHT22;9940;47.252;8.696;2023-04-28T11:16:59;15.20;99.90
19588;DHT22;9940;47.252;8.696;2023-04-28T11:19:29;15.20;99.90
19588;DHT22;9940;47.252;8.696;2023-04-28T11:21:57;15.20;99.90
19588;DHT22;9940;47.252;8.696;2023-04-28T11:24:24;15.20;99.90
19588;DHT22;9940;47.252;8.696;2023-04-28T11:26:50;15.20;99.90
19588;DHT22;9940;47.252;8.696;2023-04-28T11:29:34;15.20;99.90
19588;DHT22;9940;47.252;8.696;2023-04-28T11:32:01;15.20;99.90
19588;DHT22;9940;47.252;8.696;2023-04-28T11:34:27;15.30;99.90
19588;DHT22;9940;47.252;8.696;2023-04-28T11:36:52;15.30;99.90
19588;DHT22;9940;47.252;8.696;2023-04-28T11:39:25;15.40;99.90
19588;DHT22;9940;47.252;8.696;2023-04-28T11:41:53;15.40;99.90
19588;DHT22;9940;47.252;8.696;2023-04-28T11:44:20;15.50;99.90
19588;DHT22;9940;47.252;8.696;2023-04-28T11:46:47;15.50;99.90
19588;DHT22;9940;47.252;8.696;2023-04-28T11:49:16;15.50;99.90
19588;DHT22;9940;47.252;8.696;2023-04-28T11:51:42;15.50;99.90
19588;DHT22;9940;47.252;8.696;2023-04-28T11:54:10;15.50;99.90
19588;DHT22;9940;47.252;8.696;2023-04-28T11:56:42;15.50;99.90
19588;DHT22;9940;47.252;8.696;2023-04-28T11:59:11;15.50;99.90
19588;DHT22;9940;47.252;8.696;2023-04-28T12:01:51;15.60;99.90
19588;DHT22;9940;47.252;8.696;2023-04-28T12:09:32;15.70;99.90
19588;DHT22;9940;47.252;8.696;2023-04-28T12:12:06;15.70;99.90
19588;DHT22;9940;47.252;8.696;2023-04-28T12:17:26;15.70;99.90
19588;DHT22;9940;47.252;8.696;2023-04-28T12:19:53;15.70;99.90
19588;DHT22;9940;47.252;8.696;2023-04-28T12:22:22;15.70;99.90
19588;DHT22;9940;47.252;8.696;2023-04-28T12:25:04;15.70;99.90
19588;DHT22;9940;47.252;8.696;2023-04-28T12:27:35;15.70;99.90
19588;DHT22;9940;47.252;8.696;2023-04-28T12:30:25;15.70;99.90
19588;DHT22;9940;47.252;8.696;2023-04-28T12:32:50;15.80;99.90
19588;DHT22;9940;47.252;8.696;2023-04-28T12:35:16;15.80;99.90
19588;DHT22;9940;47.252;8.696;2023-04-28T12:37:42;15.80;99.90
19588;DHT22;9940;47.252;8.696;2023-04-28T12:40:12;15.70;99.90
19588;DHT22;9940;47.252;8.696;2023-04-28T12:42:39;15.70;99.90
19588;DHT22;9940;47.252;8.696;2023-04-28T12:45:05;15.70;99.90
19588;DHT22;9940;47.252;8.696;2023-04-28T12:47:34;15.70;99.90
19588;DHT22;9940;47.252;8.696;2023-04-28T12:49:59;15.80;99.90
19588;DHT22;9940;47.252;8.696;2023-04-28T12:52:25;15.70;99.90
19588;DHT22;9940;47.252;8.696;2023-04-28T12:54:51;15.70;99.90
19588;DHT22;9940;47.252;8.696;2023-04-28T12:57:18;15.70;99.90
19588;DHT22;9940;47.252;8.696;2023-04-28T12:59:47;15.60;99.90
19588;DHT22;9940;47.252;8.696;2023-04-28T13:02:13;15.70;99.90
19588;DHT22;9940;47.252;8.696;2023-04-28T13:04:40;15.70;99.90
19588;DHT22;9940;47.252;8.696;2023-04-28T13:07:11;15.70;99.90
19588;DHT22;9940;47.252;8.696;2023-04-28T13:09:36;15.80;99.90
19588;DHT22;9940;47.252;8.696;2023-04-28T13:12:02;15.80;99.90
19588;DHT22;9940;47.252;8.696;2023-04-28T13:14:32;15.90;99.90
19588;DHT22;9940;47.252;8.696;2023-04-28T13:16:57;16.00;99.90
19588;DHT22;9940;47.252;8.696;2023-04-28T13:19:23;16.00;99.90
19588;DHT22;9940;47.252;8.696;2023-04-28T13:21:48;16.10;99.90
19588;DHT22;9940;47.252;8.696;2023-04-28T13:24:19;16.10;99.90
19588;DHT22;9940;47.252;8.696;2023-04-28T13:26:44;16.00;99.90
19588;DHT22;9940;47.252;8.696;2023-04-28T13:29:12;16.10;99.90
19588;DHT22;9940;47.252;8.696;2023-04-28T13:31:39;16.10;99.90
19588;DHT22;9940;47.252;8.696;2023-04-28T13:34:04;16.10;99.90
19588;DHT22;9940;47.252;8.696;2023-04-28T13:36:32;16.10;99.90
19588;DHT22;9940;47.252;8.696;2023-04-28T13:38:58;16.20;99.90
19588;DHT22;9940;47.252;8.696;2023-04-28T13:41:24;16.30;99.90
19588;DHT22;9940;47.252;8.696;2023-04-28T13:43:50;16.40;99.90
19588;DHT22;9940;47.252;8.696;2023-04-28T13:46:16;16.50;99.90
19588;DHT22;9940;47.252;8.696;2023-04-28T13:48:42;16.60;99.90
19588;DHT22;9940;47.252;8.696;2023-04-28T13:51:10;16.70;99.90
19588;DHT22;9940;47.252;8.696;2023-04-28T13:53:36;16.70;99.90
19588;DHT22;9940;47.252;8.696;2023-04-28T13:56:06;16.70;99.90
19588;DHT22;9940;47.252;8.696;2023-04-28T13:58:35;16.60;99.90
19588;DHT22;9940;47.252;8.696;2023-04-28T14:01:03;16.60;99.90
19588;DHT22;9940;47.252;8.696;2023-04-28T14:05:58;16.70;99.90
19588;DHT22;9940;47.252;8.696;2023-04-28T14:08:27;16.80;99.90
19588;DHT22;9940;47.252;8.696;2023-04-28T14:10:53;16.90;99.90
19588;DHT22;9940;47.252;8.696;2023-04-28T14:13:19;17.00;99.90
19588;DHT22;9940;47.252;8.696;2023-04-28T14:15:45;17.10;99.90
19588;DHT22;9940;47.252;8.696;2023-04-28T14:18:12;17.00;99.90
19588;DHT22;9940;47.252;8.696;2023-04-28T14:20:38;16.90;99.90
19588;DHT22;9940;47.252;8.696;2023-04-28T14:23:04;16.90;99.90
19588;DHT22;9940;47.252;8.696;2023-04-28T14:25:29;16.90;99.90
19588;DHT22;9940;47.252;8.696;2023-04-28T14:27:55;16.90;99.90
19588;DHT22;9940;47.252;8.696;2023-04-28T14:30:21;16.90;99.90
19588;DHT22;9940;47.252;8.696;2023-04-28T14:32:47;16.90;99.90
19588;DHT22;9940;47.252;8.696;2023-04-28T14:35:16;16.80;99.90
19588;DHT22;9940;47.252;8.696;2023-04-28T14:37:48;16.90;99.90
19588;DHT22;9940;47.252;8.696;2023-04-28T14:40:14;17.20;99.90
19588;DHT22;9940;47.252;8.696;2023-04-28T14:42:44;17.60;99.90
19588;DHT22;9940;47.252;8.696;2023-04-28T14:45:15;17.80;99.90
19588;DHT22;9940;47.252;8.696;2023-04-28T14:47:44;17.80;99.90
19588;DHT22;9940;47.252;8.696;2023-04-28T14:50:09;17.80;99.90
19588;DHT22;9940;47.252;8.696;2023-04-28T14:52:37;17.70;99.90
19588;DHT22;9940;47.252;8.696;2023-04-28T14:55:03;17.60;99.90
19588;DHT22;9940;47.252;8.696;2023-04-28T14:57:32;17.50;99.90
19588;DHT22;9940;47.252;8.696;2023-04-28T15:00:00;17.70;99.90
19588;DHT22;9940;47.252;8.696;2023-04-28T15:02:28;17.80;99.90
19588;DHT22;9940;47.252;8.696;2023-04-28T15:04:57;17.80;99.90
19588;DHT22;9940;47.252;8.696;2023-04-28T15:07:24;17.90;99.90
19588;DHT22;9940;47.252;8.696;2023-04-28T15:09:55;17.80;99.90
19588;DHT22;9940;47.252;8.696;2023-04-28T15:12:21;17.80;99.90
19588;DHT22;9940;47.252;8.696;2023-04-28T15:14:51;17.70;99.90
19588;DHT22;9940;47.252;8.696;2023-04-28T15:17:19;17.70;99.90
19588;DHT22;9940;47.252;8.696;2023-04-28T15:19:45;17.60;99.90
19588;DHT22;9940;47.252;8.696;2023-04-28T15:22:12;17.40;99.90
19588;DHT22;9940;47.252;8.696;2023-04-28T15:24:37;17.30;99.90
19588;DHT22;9940;47.252;8.696;2023-04-28T15:27:03;17.30;99.90
19588;DHT22;9940;47.252;8.696;2023-04-28T15:29:31;17.20;99.90
19588;DHT22;9940;47.252;8.696;2023-04-28T15:31:57;17.30;99.90
19588;DHT22;9940;47.252;8.696;2023-04-28T15:34:22;17.30;99.90
19588;DHT22;9940;47.252;8.696;2023-04-28T15:36:52;17.30;99.90
19588;DHT22;9940;47.252;8.696;2023-04-28T15:39:18;17.20;99.90
19588;DHT22;9940;47.252;8.696;2023-04-28T15:41:46;17.10;99.90
19588;DHT22;9940;47.252;8.696;2023-04-28T15:44:12;16.90;99.90
19588;DHT22;9940;47.252;8.696;2023-04-28T15:46:37;16.80;99.90
19588;DHT22;9940;47.252;8.696;2023-04-28T15:49:06;16.70;99.90
19588;DHT22;9940;47.252;8.696;2023-04-28T15:51:32;16.70;99.90
19588;DHT22;9940;47.252;8.696;2023-04-28T15:53:58;16.60;99.90
19588;DHT22;9940;47.252;8.696;2023-04-28T15:56:24;16.60;99.90
19588;DHT22;9940;47.252;8.696;2023-04-28T15:58:51;16.60;99.90
19588;DHT22;9940;47.252;8.696;2023-04-28T16:01:19;16.60;99.90
19588;DHT22;9940;47.252;8.696;2023-04-28T16:03:46;16.50;99.90
19588;DHT22;9940;47.252;8.696;2023-04-28T16:06:14;16.50;99.90
19588;DHT22;9940;47.252;8.696;2023-04-28T16:08:40;16.40;99.90
19588;DHT22;9940;47.252;8.696;2023-04-28T16:11:06;16.30;99.90
19588;DHT22;9940;47.252;8.696;2023-04-28T16:13:32;16.30;99.90
19588;DHT22;9940;47.252;8.696;2023-04-28T16:16:01;16.30;99.90
19588;DHT22;9940;47.252;8.696;2023-04-28T16:18:29;16.20;99.90
19588;DHT22;9940;47.252;8.696;2023-04-28T16:20:55;16.20;99.90
19588;DHT22;9940;47.252;8.696;2023-04-28T16:23:21;16.10;99.90
19588;DHT22;9940;47.252;8.696;2023-04-28T16:25:47;16.10;99.90
19588;DHT22;9940;47.252;8.696;2023-04-28T16:28:17;16.10;99.90
19588;DHT22;9940;47.252;8.696;2023-04-28T16:30:43;16.00;99.90